MMTO/TLC METAR and TAF weather

Enter ICAO airport designator
Station Type Date Time Source
MMTO METAR 2020/07/11 01:04 UTC NOAA

MMTO 110104Z 18008KT 6SM TSRA BKN015CB BKN070 BKN200 15/10 A3040 RMK 8/963 HZY TSRA B 03


Station Type Date Time Source
MMTO Decoded METAR 2020/07/11 01:04 UTC NOAA

Toluca / Jose Maria , Mexico (MMTO) 19-21N 099-34W
Jul 10, 2020 - 09:04 PM EDT / 2020.07.11 0104 UTC
Wind: from the S (180 degrees) at 9 MPH (8 KT):0
Visibility: 6 mile(s):0
Sky conditions: mostly cloudy
Weather: rain with thunder; Cumulonimbus clouds observed
Temperature: 59 F (15 C)
Dew Point: 50 F (10 C)
Relative Humidity: 72%
Pressure (altimeter): 30.4 in. Hg (1029 hPa)
ob: MMTO 110104Z 18008KT 6SM TSRA BKN015CB BKN070 BKN200 15/10 A3040 RMK 8/963 HZY TSRA B 03
cycle: 1

Station Type Date Time Source
MMTO TAF 2020/07/10 18:13 UTC NOAA

TAF MMTO 101711Z 1018/1124 20010KT P6SM SCT015 TX23/1021Z TN08/1112Z
FM102100 20012KT P6SM BKN015
TEMPO 1023/1102 5SM TSRA BKN015CB
FM110300 00000KT 6SM HZ BKN080
FM111200 00000KT 3SM BR SCT015
FM111600 00000KT 5SM HZ SCT015 PROB40 1120/1124 4SM TSRA BKN015CB

Example: see airport list